createdAt,value
2018-12-05T00:01:53.332Z,96.60
2018-12-05T00:04:22.179Z,96.60
2018-12-05T00:06:50.821Z,96.60
2018-12-05T00:09:19.105Z,96.60
2018-12-05T00:11:47.459Z,96.60
2018-12-05T00:14:15.904Z,96.60
2018-12-05T00:16:44.098Z,96.60
2018-12-05T00:19:12.469Z,96.60
2018-12-05T00:21:40.618Z,96.60
2018-12-05T00:24:09.515Z,96.60
2018-12-05T00:26:38.478Z,96.60
2018-12-05T00:29:06.754Z,96.60
2018-12-05T00:31:35.045Z,96.60
2018-12-05T00:34:04.261Z,96.60
2018-12-05T00:36:32.866Z,96.60
2018-12-05T00:39:01.184Z,96.60
2018-12-05T00:41:29.375Z,96.60
2018-12-05T00:43:57.866Z,96.60
2018-12-05T00:46:26.603Z,96.60
2018-12-05T00:48:55.187Z,96.60
2018-12-05T00:51:23.287Z,96.60
2018-12-05T00:53:51.516Z,96.60
2018-12-05T00:56:19.757Z,96.60
2018-12-05T00:58:48.934Z,96.60
2018-12-05T01:01:17.079Z,96.60
2018-12-05T01:03:45.421Z,96.60
2018-12-05T01:06:15.109Z,96.60
2018-12-05T01:08:43.367Z,96.60
2018-12-05T01:11:11.826Z,96.60
2018-12-05T01:13:40.126Z,96.60
2018-12-05T01:16:08.667Z,96.60
2018-12-05T01:18:36.895Z,96.60
2018-12-05T01:21:05.477Z,96.60
2018-12-05T01:23:33.703Z,96.60
2018-12-05T01:26:02.117Z,96.60
2018-12-05T01:28:30.757Z,96.60
2018-12-05T01:30:59.077Z,96.60
2018-12-05T01:33:27.440Z,96.60
2018-12-05T01:35:56.378Z,96.60
2018-12-05T01:38:24.598Z,96.60
2018-12-05T01:40:52.773Z,96.60
2018-12-05T01:43:20.982Z,96.60
2018-12-05T01:45:49.075Z,96.60
2018-12-05T01:48:17.737Z,96.60
2018-12-05T01:50:46.082Z,96.60
2018-12-05T01:53:14.336Z,96.60
2018-12-05T01:55:42.678Z,96.60
2018-12-05T01:58:11.382Z,96.60
2018-12-05T02:00:40.065Z,96.60
2018-12-05T02:03:08.374Z,96.60
2018-12-05T02:05:36.642Z,96.60
2018-12-05T02:08:05.021Z,96.60
2018-12-05T02:10:33.334Z,96.60
2018-12-05T02:13:01.426Z,96.60
2018-12-05T02:15:29.944Z,96.60
2018-12-05T02:17:58.500Z,96.60
2018-12-05T02:20:26.930Z,96.60
2018-12-05T02:22:55.529Z,96.60
2018-12-05T02:25:24.394Z,96.60
2018-12-05T02:27:53.390Z,96.60
2018-12-05T02:30:21.840Z,96.60
2018-12-05T02:32:51.276Z,96.60
2018-12-05T02:35:19.537Z,96.60
2018-12-05T02:37:47.942Z,96.60
2018-12-05T02:40:16.803Z,96.60
2018-12-05T02:42:45.182Z,96.60
2018-12-05T02:45:13.555Z,96.60
2018-12-05T02:47:42.028Z,96.60
2018-12-05T02:50:10.627Z,96.60
2018-12-05T02:52:38.952Z,96.60
2018-12-05T02:55:07.693Z,96.60
2018-12-05T02:57:35.965Z,96.60
2018-12-05T03:00:06.145Z,96.60
2018-12-05T03:02:35.462Z,96.60
2018-12-05T03:05:04.440Z,96.60
2018-12-05T03:07:32.689Z,96.60
2018-12-05T03:10:01.476Z,96.60
2018-12-05T03:12:30.233Z,96.60
2018-12-05T03:14:58.449Z,96.60
2018-12-05T03:17:26.791Z,96.60
2018-12-05T03:19:55.099Z,96.60
2018-12-05T03:22:23.585Z,96.60
2018-12-05T03:24:52.730Z,96.60
2018-12-05T03:27:21.109Z,96.60
2018-12-05T03:29:49.804Z,96.60
2018-12-05T03:32:18.035Z,96.60
2018-12-05T03:34:46.253Z,96.60
2018-12-05T03:37:14.521Z,96.60
2018-12-05T03:39:42.713Z,96.60
2018-12-05T03:42:11.895Z,96.60
2018-12-05T03:44:41.086Z,96.60
2018-12-05T03:47:09.483Z,96.60
2018-12-05T03:49:37.696Z,96.60
2018-12-05T03:52:06.086Z,96.60
2018-12-05T03:54:34.402Z,96.60
2018-12-05T03:57:03.519Z,96.60
2018-12-05T03:59:31.750Z,96.60
2018-12-05T04:02:00.028Z,96.60
2018-12-05T04:04:28.292Z,96.60
2018-12-05T04:06:56.540Z,96.60
2018-12-05T04:09:24.826Z,96.60
2018-12-05T04:11:53.045Z,96.60
2018-12-05T04:14:21.351Z,96.60
2018-12-05T04:16:49.663Z,96.60
2018-12-05T04:19:18.589Z,96.60
2018-12-05T04:21:46.821Z,96.60
2018-12-05T04:24:15.373Z,96.60
2018-12-05T04:26:44.414Z,96.60
2018-12-05T04:29:12.758Z,96.60
2018-12-05T04:31:41.222Z,96.60
2018-12-05T04:34:09.427Z,96.60
2018-12-05T04:36:37.694Z,96.60
2018-12-05T04:39:08.457Z,96.60
2018-12-05T04:41:37.562Z,96.60
2018-12-05T04:44:06.246Z,96.60
2018-12-05T04:46:34.650Z,96.60
2018-12-05T04:49:02.988Z,96.60
2018-12-05T04:54:30.358Z,96.60
2018-12-05T04:56:58.923Z,96.60
2018-12-05T04:59:27.212Z,96.60
2018-12-05T05:01:55.464Z,96.60
2018-12-05T05:04:23.778Z,96.60
2018-12-05T05:06:52.041Z,96.60
2018-12-05T05:09:20.215Z,96.60
2018-12-05T05:11:48.415Z,96.60
2018-12-05T05:14:16.834Z,96.60
2018-12-05T05:16:45.037Z,96.60
2018-12-05T05:19:13.337Z,96.60
2018-12-05T05:21:41.514Z,96.60
2018-12-05T05:24:09.751Z,96.60
2018-12-05T05:26:38.484Z,96.60
2018-12-05T05:29:06.809Z,96.60
2018-12-05T05:31:35.131Z,96.60
2018-12-05T05:34:03.655Z,96.60
2018-12-05T05:36:32.162Z,96.60
2018-12-05T05:39:00.432Z,96.60
2018-12-05T05:41:28.933Z,96.60
2018-12-05T05:43:57.768Z,96.60
2018-12-05T05:46:25.873Z,96.60
2018-12-05T05:48:54.168Z,96.60
2018-12-05T05:51:22.857Z,96.60
2018-12-05T05:53:52.024Z,96.60
2018-12-05T05:56:20.352Z,96.60
2018-12-05T05:58:49.942Z,96.60
2018-12-05T06:01:18.143Z,96.60
2018-12-05T06:03:46.526Z,96.60
2018-12-05T06:06:14.867Z,96.60
2018-12-05T06:08:43.201Z,96.60
2018-12-05T06:11:11.568Z,96.60
2018-12-05T06:13:40.702Z,96.60
2018-12-05T06:16:09.201Z,96.60
2018-12-05T06:18:37.533Z,96.60
2018-12-05T06:21:05.770Z,96.60
2018-12-05T06:23:34.390Z,96.60
2018-12-05T06:26:03.005Z,96.60
2018-12-05T06:28:31.628Z,96.60
2018-12-05T06:30:59.783Z,96.60
2018-12-05T06:33:28.061Z,96.60
2018-12-05T06:35:56.158Z,96.60
2018-12-05T06:38:24.331Z,96.60
2018-12-05T06:40:53.811Z,96.60
2018-12-05T06:43:22.449Z,96.60
2018-12-05T06:45:50.575Z,96.60
2018-12-05T06:48:19.001Z,96.60
2018-12-05T06:50:47.389Z,96.60
2018-12-05T06:53:15.567Z,96.60
2018-12-05T06:55:43.900Z,96.60
2018-12-05T06:58:12.352Z,96.60
2018-12-05T07:00:40.784Z,96.60
2018-12-05T07:03:09.005Z,96.60
2018-12-05T07:05:37.291Z,96.60
2018-12-05T07:08:05.941Z,96.60
2018-12-05T07:12:03.662Z,96.60
2018-12-05T07:14:32.218Z,96.60
2018-12-05T07:17:00.750Z,96.60
2018-12-05T07:19:29.522Z,96.60
2018-12-05T07:21:58.088Z,96.60
2018-12-05T07:24:27.176Z,96.60
2018-12-05T07:26:55.393Z,96.60
2018-12-05T07:29:23.753Z,96.60
2018-12-05T07:31:52.749Z,96.60
2018-12-05T07:34:20.957Z,96.60
2018-12-05T07:36:49.502Z,96.60
2018-12-05T07:39:18.696Z,96.60
2018-12-05T07:41:46.911Z,96.60
2018-12-05T07:44:15.284Z,96.60
2018-12-05T07:46:43.893Z,96.60
2018-12-05T07:49:13.069Z,96.60
2018-12-05T07:51:41.448Z,96.60
2018-12-05T07:54:09.651Z,96.60
2018-12-05T07:56:38.100Z,96.60
2018-12-05T07:59:07.446Z,96.60
2018-12-05T08:01:35.690Z,96.60
2018-12-05T08:04:03.898Z,96.60
2018-12-05T08:06:32.200Z,96.60
2018-12-05T08:09:00.515Z,96.60
2018-12-05T08:11:28.965Z,96.60
2018-12-05T08:13:57.270Z,96.60
2018-12-05T08:16:25.797Z,96.60
2018-12-05T08:18:54.442Z,96.60
2018-12-05T08:21:22.710Z,96.60
2018-12-05T08:23:50.885Z,96.60
2018-12-05T08:26:19.396Z,96.60
2018-12-05T08:28:47.638Z,96.60
2018-12-05T08:31:15.940Z,96.60
2018-12-05T08:33:44.146Z,96.60
2018-12-05T08:36:12.502Z,96.60
2018-12-05T08:38:41.154Z,96.60
2018-12-05T08:41:09.383Z,96.60
2018-12-05T08:43:37.474Z,96.60
2018-12-05T08:46:05.899Z,96.60
2018-12-05T08:48:34.168Z,96.60
2018-12-05T08:51:02.482Z,96.60
2018-12-05T08:53:30.988Z,96.60
2018-12-05T08:55:59.334Z,96.60
2018-12-05T08:58:29.895Z,96.60
2018-12-05T09:00:58.330Z,96.60
2018-12-05T09:03:26.573Z,96.60
2018-12-05T09:05:55.456Z,96.60
2018-12-05T09:08:23.731Z,96.60
2018-12-05T09:10:52.030Z,96.60
2018-12-05T09:13:21.741Z,96.60
2018-12-05T09:15:50.994Z,94.90
2018-12-05T09:18:19.343Z,90.30
2018-12-05T09:20:47.897Z,85.20
2018-12-05T09:23:16.167Z,86.80
2018-12-05T09:25:45.084Z,88.90
2018-12-05T09:28:13.188Z,87.70
2018-12-05T09:30:41.591Z,84.90
2018-12-05T09:33:09.878Z,86.90
2018-12-05T09:35:38.184Z,88.40
2018-12-05T09:38:06.527Z,86.40
2018-12-05T09:40:34.792Z,85.60
2018-12-05T09:43:04.206Z,86.80
2018-12-05T09:45:32.670Z,85.50
2018-12-05T09:48:00.988Z,87.30
2018-12-05T09:50:29.301Z,86.80
2018-12-05T09:52:58.230Z,85.50
2018-12-05T09:55:26.978Z,84.40
2018-12-05T09:57:55.160Z,83.40
2018-12-05T10:00:23.499Z,83.00
2018-12-05T10:02:51.697Z,82.10
2018-12-05T10:05:20.553Z,82.70
2018-12-05T10:07:48.874Z,83.00
2018-12-05T10:10:17.655Z,83.10
2018-12-05T10:12:46.773Z,83.80
2018-12-05T10:15:15.317Z,81.30
2018-12-05T10:17:43.486Z,81.90
2018-12-05T10:20:11.851Z,81.90
2018-12-05T10:22:40.028Z,82.00
2018-12-05T10:25:08.649Z,81.20
2018-12-05T10:27:37.214Z,82.60
2018-12-05T10:30:06.325Z,81.00
2018-12-05T10:32:34.608Z,78.40
2018-12-05T10:35:03.094Z,79.60
2018-12-05T10:37:31.328Z,79.30
2018-12-05T10:39:59.803Z,80.30
2018-12-05T10:42:28.775Z,80.40
2018-12-05T10:44:57.130Z,78.70
2018-12-05T10:47:25.517Z,78.40
2018-12-05T10:49:53.766Z,78.80
2018-12-05T10:52:22.074Z,78.60
2018-12-05T10:54:50.481Z,79.10
2018-12-05T10:57:18.699Z,78.00
2018-12-05T10:59:47.100Z,79.00
2018-12-05T11:02:20.777Z,80.40
2018-12-05T11:04:54.478Z,82.00
2018-12-05T11:07:28.329Z,82.70
2018-12-05T11:10:05.080Z,83.00
2018-12-05T11:12:38.829Z,83.10
2018-12-05T11:15:13.274Z,83.30
2018-12-05T11:17:46.082Z,83.00
2018-12-05T11:20:19.879Z,83.90
2018-12-05T11:22:53.559Z,83.80
2018-12-05T11:25:23.266Z,84.50
2018-12-05T11:27:51.522Z,84.10
2018-12-05T11:30:19.721Z,84.50
2018-12-05T11:32:48.079Z,84.00
2018-12-05T11:35:16.448Z,84.30
2018-12-05T11:37:45.424Z,84.10
2018-12-05T11:40:13.676Z,84.20
2018-12-05T11:42:42.287Z,84.10
2018-12-05T11:45:10.660Z,84.10
2018-12-05T11:47:39.006Z,84.10
2018-12-05T11:50:08.237Z,84.10
2018-12-05T11:52:36.646Z,83.70
2018-12-05T11:55:06.146Z,83.50
2018-12-05T11:57:34.394Z,83.60
2018-12-05T12:00:02.909Z,84.00
2018-12-05T12:02:31.171Z,84.30
2018-12-05T12:04:59.441Z,84.20
2018-12-05T12:07:27.811Z,83.70
2018-12-05T12:09:56.227Z,83.30
2018-12-05T12:12:31.243Z,83.20
2018-12-05T12:14:59.731Z,83.50
2018-12-05T12:17:27.978Z,83.60
2018-12-05T12:19:56.179Z,80.80
2018-12-05T12:22:24.361Z,81.20
2018-12-05T12:24:53.475Z,82.20
2018-12-05T12:27:21.735Z,83.10
2018-12-05T12:29:50.165Z,83.30
2018-12-05T12:32:18.540Z,83.00
2018-12-05T12:34:46.880Z,83.80
2018-12-05T12:37:15.818Z,84.20
2018-12-05T12:39:44.029Z,84.70
2018-12-05T12:42:12.597Z,85.20
2018-12-05T12:44:40.938Z,85.00
2018-12-05T12:47:09.155Z,84.30
2018-12-05T12:49:37.505Z,83.70
2018-12-05T12:52:05.934Z,82.80
2018-12-05T12:54:34.320Z,82.70
2018-12-05T12:57:02.666Z,82.20
2018-12-05T12:59:31.757Z,82.70
2018-12-05T13:01:59.875Z,80.40
2018-12-05T13:04:29.071Z,76.10
2018-12-05T13:06:57.785Z,71.60
2018-12-05T13:09:26.714Z,64.80
2018-12-05T13:11:55.144Z,62.00
2018-12-05T13:14:23.568Z,59.20
2018-12-05T13:17:04.733Z,56.20
2018-12-05T13:19:33.035Z,55.10
2018-12-05T13:22:01.328Z,53.30
2018-12-05T13:24:29.864Z,52.90
2018-12-05T13:26:58.603Z,52.80
2018-12-05T13:29:26.698Z,52.50
2018-12-05T13:31:56.601Z,51.60
2018-12-05T13:34:24.962Z,53.30
2018-12-05T13:36:53.534Z,51.80
2018-12-05T13:39:21.833Z,52.90
2018-12-05T13:41:50.803Z,53.90
2018-12-05T13:44:19.987Z,57.30
2018-12-05T13:46:48.257Z,55.70
2018-12-05T13:49:16.651Z,54.40
2018-12-05T13:51:44.955Z,52.70
2018-12-05T13:54:13.670Z,52.40
2018-12-05T13:56:41.780Z,53.40
2018-12-05T13:59:10.456Z,53.60
2018-12-05T14:01:38.747Z,54.70
2018-12-05T14:04:07.411Z,53.90
2018-12-05T14:06:36.437Z,54.20
2018-12-05T14:09:06.461Z,54.40
2018-12-05T14:11:34.632Z,56.00
2018-12-05T14:14:03.551Z,57.10
2018-12-05T14:16:31.739Z,58.70
2018-12-05T14:19:00.011Z,60.30
2018-12-05T14:21:28.631Z,64.20
2018-12-05T14:23:56.967Z,66.80
2018-12-05T14:26:25.617Z,68.80
2018-12-05T14:28:54.126Z,69.30
2018-12-05T14:31:22.638Z,70.30
2018-12-05T14:33:50.935Z,73.20
2018-12-05T14:36:19.868Z,74.90
2018-12-05T14:38:48.788Z,76.10
2018-12-05T14:41:17.136Z,76.80
2018-12-05T14:43:45.501Z,78.30
2018-12-05T14:46:14.029Z,80.00
2018-12-05T14:48:42.223Z,81.40
2018-12-05T14:51:11.185Z,82.70
2018-12-05T14:53:40.086Z,83.70
2018-12-05T14:56:08.401Z,84.70
2018-12-05T14:58:38.856Z,85.40
2018-12-05T15:01:07.806Z,86.10
2018-12-05T15:03:36.976Z,86.70
2018-12-05T15:06:06.497Z,87.40
2018-12-05T15:08:34.835Z,87.90
2018-12-05T15:11:03.664Z,88.60
2018-12-05T15:13:32.071Z,89.00
2018-12-05T15:16:00.184Z,89.20
2018-12-05T15:18:28.586Z,90.00
2018-12-05T15:20:56.980Z,90.30
2018-12-05T15:23:25.179Z,90.40
2018-12-05T15:26:05.612Z,90.50
2018-12-05T15:28:33.941Z,90.60
2018-12-05T15:31:02.462Z,90.60
2018-12-05T15:33:30.953Z,90.80
2018-12-05T15:35:59.246Z,91.40
2018-12-05T15:38:28.550Z,92.30
2018-12-05T15:40:56.922Z,92.80
2018-12-05T15:43:25.298Z,93.00
2018-12-05T15:45:53.573Z,93.20
2018-12-05T15:48:22.811Z,93.30
2018-12-05T15:50:51.114Z,93.10
2018-12-05T15:53:19.862Z,92.80
2018-12-05T15:55:48.242Z,92.60
2018-12-05T15:58:17.095Z,92.20
2018-12-05T16:00:45.275Z,92.10
2018-12-05T16:03:13.798Z,92.00
2018-12-05T16:05:42.102Z,92.10
2018-12-05T16:08:11.128Z,91.90
2018-12-05T16:10:39.803Z,92.00
2018-12-05T16:13:08.075Z,91.80
2018-12-05T16:15:36.380Z,91.90
2018-12-05T16:18:04.733Z,92.00
2018-12-05T16:20:32.919Z,91.50
2018-12-05T16:23:01.448Z,91.00
2018-12-05T16:25:29.995Z,91.10
2018-12-05T16:27:58.127Z,91.20
2018-12-05T16:30:26.407Z,91.50
2018-12-05T16:32:54.681Z,91.40
2018-12-05T16:35:23.313Z,91.30
2018-12-05T16:37:51.681Z,91.40
2018-12-05T16:40:20.006Z,90.80
2018-12-05T16:42:48.270Z,90.70
2018-12-05T16:45:16.608Z,90.50
2018-12-05T16:47:45.118Z,90.10
2018-12-05T16:50:13.442Z,90.00
2018-12-05T16:52:42.790Z,89.90
2018-12-05T16:55:11.192Z,90.00
2018-12-05T16:57:40.775Z,90.30
2018-12-05T17:00:10.992Z,90.60
2018-12-05T17:02:39.862Z,90.80
2018-12-05T17:05:08.403Z,91.00
2018-12-05T17:07:37.245Z,91.20
2018-12-05T17:10:06.499Z,91.20
2018-12-05T17:12:34.797Z,91.50
2018-12-05T17:15:03.450Z,92.00
2018-12-05T17:17:32.812Z,92.10
2018-12-05T17:20:01.458Z,92.30
2018-12-05T17:22:29.801Z,92.40
2018-12-05T17:24:58.994Z,92.60
2018-12-05T17:27:27.847Z,92.70
2018-12-05T17:29:56.122Z,92.70
2018-12-05T17:32:24.478Z,92.90
2018-12-05T17:34:53.857Z,93.00
2018-12-05T17:37:22.373Z,93.30
2018-12-05T17:39:50.962Z,93.30
2018-12-05T17:42:19.328Z,93.40
2018-12-05T17:44:47.892Z,93.50
2018-12-05T17:47:16.164Z,93.60
2018-12-05T17:49:44.538Z,93.60
2018-12-05T17:52:12.747Z,93.60
2018-12-05T17:54:41.160Z,93.60
2018-12-05T17:57:09.559Z,93.60
2018-12-05T17:59:38.213Z,93.50
2018-12-05T18:02:06.405Z,93.30
2018-12-05T18:04:34.785Z,93.10
2018-12-05T18:07:03.614Z,93.10
2018-12-05T18:09:32.164Z,93.00
2018-12-05T18:12:01.510Z,92.70
2018-12-05T18:14:29.825Z,92.60
2018-12-05T18:16:58.376Z,92.50
2018-12-05T18:19:26.498Z,92.20
2018-12-05T18:21:55.015Z,92.40
2018-12-05T18:24:23.235Z,92.50
2018-12-05T18:26:52.132Z,93.10
2018-12-05T18:29:20.317Z,93.40
2018-12-05T18:31:48.632Z,93.30
2018-12-05T18:34:17.797Z,93.40
2018-12-05T18:36:46.346Z,93.60
2018-12-05T18:39:14.956Z,94.00
2018-12-05T18:41:43.483Z,94.00
2018-12-05T18:44:11.615Z,93.70
2018-12-05T18:46:40.132Z,93.00
2018-12-05T18:49:08.431Z,92.70
2018-12-05T18:51:37.287Z,92.50
2018-12-05T18:54:05.504Z,92.30
2018-12-05T18:56:33.729Z,92.30
2018-12-05T18:59:02.880Z,92.30
2018-12-05T19:01:31.117Z,92.40
2018-12-05T19:03:59.373Z,92.60
2018-12-05T19:06:28.451Z,93.00
2018-12-05T19:08:57.723Z,93.10
2018-12-05T19:11:26.018Z,93.10
2018-12-05T19:13:59.627Z,93.10
2018-12-05T19:16:29.593Z,93.10
2018-12-05T19:18:57.913Z,93.20
2018-12-05T19:21:26.195Z,93.30
2018-12-05T19:23:54.595Z,93.50
2018-12-05T19:26:23.282Z,93.70
2018-12-05T19:28:52.123Z,93.80
2018-12-05T19:31:20.623Z,93.80
2018-12-05T19:33:48.845Z,94.00
2018-12-05T19:36:17.331Z,93.80
2018-12-05T19:38:45.472Z,93.70
2018-12-05T19:41:13.936Z,93.60
2018-12-05T19:43:42.258Z,93.70
2018-12-05T19:46:11.955Z,93.80
2018-12-05T19:48:40.333Z,93.70
2018-12-05T19:51:10.350Z,93.90
2018-12-05T19:53:38.837Z,94.10
2018-12-05T19:56:07.309Z,94.20
2018-12-05T19:58:35.467Z,94.00
2018-12-05T20:01:03.759Z,93.70
2018-12-05T20:03:31.994Z,93.50
2018-12-05T20:06:01.976Z,93.50
2018-12-05T20:08:31.017Z,93.10
2018-12-05T20:10:59.242Z,92.90
2018-12-05T20:13:27.653Z,92.80
2018-12-05T20:15:55.873Z,92.90
2018-12-05T20:18:24.815Z,93.00
2018-12-05T20:22:22.502Z,93.00
2018-12-05T20:24:50.608Z,93.30
2018-12-05T20:27:19.817Z,94.20
2018-12-05T20:29:48.303Z,94.10
2018-12-05T20:32:16.574Z,94.40
2018-12-05T20:34:45.553Z,94.60
2018-12-05T20:37:13.678Z,94.40
2018-12-05T20:39:41.931Z,94.00
2018-12-05T20:42:10.391Z,93.90
2018-12-05T20:44:38.569Z,93.80
2018-12-05T20:47:07.534Z,93.80
2018-12-05T20:49:35.809Z,93.80
2018-12-05T20:52:04.180Z,93.40
2018-12-05T20:54:33.196Z,92.90
2018-12-05T20:57:01.849Z,92.90
2018-12-05T20:59:31.043Z,92.80
2018-12-05T21:01:59.580Z,92.90
2018-12-05T21:04:27.905Z,92.80
2018-12-05T21:06:56.578Z,92.50
2018-12-05T21:09:24.990Z,92.30
2018-12-05T21:11:53.812Z,92.10
2018-12-05T21:14:22.323Z,91.80
2018-12-05T21:16:50.611Z,91.60
2018-12-05T21:19:18.807Z,91.60
2018-12-05T21:21:47.122Z,91.50
2018-12-05T21:24:15.386Z,91.60
2018-12-05T21:26:44.447Z,91.70
2018-12-05T21:29:13.375Z,91.90
2018-12-05T21:31:41.834Z,92.00
2018-12-05T21:34:10.168Z,91.90
2018-12-05T21:36:38.369Z,92.00
2018-12-05T21:39:08.868Z,92.10
2018-12-05T21:41:37.182Z,92.10
2018-12-05T21:44:06.102Z,92.10
2018-12-05T21:46:34.301Z,92.20
2018-12-05T21:49:09.314Z,92.50
2018-12-05T21:51:38.241Z,92.50
2018-12-05T21:54:07.299Z,92.30
2018-12-05T21:59:29.460Z,92.30
2018-12-05T22:07:45.456Z,92.20
2018-12-05T22:10:14.019Z,92.50
2018-12-05T22:12:42.175Z,92.60
2018-12-05T22:15:10.614Z,92.60
2018-12-05T22:17:39.031Z,92.70
2018-12-05T22:20:08.712Z,92.80
2018-12-05T22:22:37.223Z,92.90
2018-12-05T22:25:06.039Z,93.10
2018-12-05T22:27:34.348Z,93.20
2018-12-05T22:30:02.928Z,93.10
2018-12-05T22:32:31.519Z,93.10
2018-12-05T22:35:00.156Z,93.00
2018-12-05T22:37:28.279Z,92.80
2018-12-05T22:39:56.715Z,92.60
2018-12-05T22:42:24.865Z,92.40
2018-12-05T22:44:53.537Z,92.20
2018-12-05T22:47:21.897Z,91.90
2018-12-05T22:49:50.633Z,91.90
2018-12-05T22:52:18.938Z,91.90
2018-12-05T22:54:47.647Z,91.90
2018-12-05T22:57:16.270Z,92.20
2018-12-05T22:59:45.177Z,92.40
2018-12-05T23:02:13.963Z,92.50
2018-12-05T23:04:42.286Z,92.50
2018-12-05T23:07:11.132Z,92.60
2018-12-05T23:09:39.483Z,92.40
2018-12-05T23:12:07.706Z,92.50
2018-12-05T23:14:36.199Z,92.50
2018-12-05T23:17:05.257Z,92.80
2018-12-05T23:19:33.468Z,92.90
2018-12-05T23:22:01.999Z,93.00
2018-12-05T23:24:30.363Z,93.20
2018-12-05T23:26:59.571Z,93.50
2018-12-05T23:29:28.946Z,93.70
2018-12-05T23:31:57.298Z,93.80
2018-12-05T23:34:25.582Z,93.70
2018-12-05T23:36:53.873Z,93.60
2018-12-05T23:39:22.163Z,93.50
2018-12-05T23:41:50.557Z,93.20
2018-12-05T23:44:18.723Z,93.20
2018-12-05T23:46:47.661Z,93.00
2018-12-05T23:49:15.807Z,93.10
2018-12-05T23:51:44.002Z,93.00
2018-12-05T23:54:12.749Z,92.80
2018-12-05T23:56:40.956Z,92.80
2018-12-05T23:59:09.404Z,93.30
